createdAt,value
2024-04-18T00:00:16.585Z,97.6
2024-04-18T00:01:47.162Z,97.6
2024-04-18T00:03:17.675Z,97.3
2024-04-18T00:04:48.542Z,97.6
2024-04-18T00:06:19.324Z,97.4
2024-04-18T00:07:49.865Z,97.3
2024-04-18T00:09:20.339Z,97.6
2024-04-18T00:10:50.847Z,97.5
2024-04-18T00:12:21.607Z,97.6
2024-04-18T00:13:52.237Z,97.6
2024-04-18T00:15:22.756Z,97.6
2024-04-18T00:16:53.319Z,97.6
2024-04-18T00:18:23.973Z,97.6
2024-04-18T00:19:54.613Z,97.4
2024-04-18T00:21:25.133Z,97.5
2024-04-18T00:22:55.763Z,97.4
2024-04-18T00:24:26.289Z,97.9
2024-04-18T00:25:56.861Z,97.3
2024-04-18T00:27:27.333Z,97.6
2024-04-18T00:28:57.949Z,97.2
2024-04-18T00:30:28.509Z,97.5
2024-04-18T00:31:59.042Z,97.6
2024-04-18T00:33:29.771Z,97.6
2024-04-18T00:35:00.344Z,97.3
2024-04-18T00:36:30.944Z,97.6
2024-04-18T00:38:01.673Z,97.5
2024-04-18T00:39:32.255Z,97.2
2024-04-18T00:41:02.903Z,97.6
2024-04-18T00:41:19.803Z,97.4
2024-04-18T00:42:50.392Z,97.6
2024-04-18T00:44:20.964Z,97.7
2024-04-18T00:45:51.443Z,97.5
2024-04-18T00:47:22.004Z,97.4
2024-04-18T00:48:52.761Z,97.3
2024-04-18T00:50:23.344Z,97.8
2024-04-18T00:51:53.874Z,97.5
2024-04-18T00:53:24.391Z,97.4
2024-04-18T00:54:54.803Z,97.6
2024-04-18T00:56:25.368Z,97.6
2024-04-18T00:57:55.850Z,97.2
2024-04-18T00:59:26.295Z,97.4
2024-04-18T01:00:56.890Z,97.5
2024-04-18T01:02:27.639Z,97.5
2024-04-18T01:03:58.552Z,97.3
2024-04-18T01:05:29.402Z,97.4
2024-04-18T01:07:00.023Z,97.4
2024-04-18T01:08:30.538Z,97.6
2024-04-18T01:10:00.958Z,97.5
2024-04-18T01:11:31.590Z,97.3
2024-04-18T01:13:02.556Z,97.6
2024-04-18T01:14:33.086Z,97.4
2024-04-18T01:16:03.613Z,97.5
2024-04-18T01:17:34.587Z,97.4
2024-04-18T01:19:05.388Z,97.1
2024-04-18T01:20:35.883Z,97.4
2024-04-18T01:22:07.339Z,97.6
2024-04-18T01:23:37.812Z,97.5
2024-04-18T01:25:08.255Z,97.3
2024-04-18T01:26:38.759Z,97.3
2024-04-18T01:28:09.179Z,97.4
2024-04-18T01:29:39.658Z,97.7
2024-04-18T01:31:10.231Z,97.2
2024-04-18T01:32:41.000Z,97.4
2024-04-18T01:34:11.929Z,97.2
2024-04-18T01:35:42.507Z,97.3
2024-04-18T01:37:13.036Z,97.3
2024-04-18T01:38:43.463Z,97.4
2024-04-18T01:40:13.998Z,97.6
2024-04-18T01:41:44.489Z,97.6
2024-04-18T01:43:14.929Z,97.7
2024-04-18T01:44:45.465Z,97.5
2024-04-18T01:46:15.963Z,97.3
2024-04-18T01:47:46.560Z,97.4
2024-04-18T02:03:22.001Z,97.2
2024-04-18T02:04:52.602Z,97.8
2024-04-18T02:06:23.104Z,97.4
2024-04-18T02:07:53.624Z,97.7
2024-04-18T02:09:24.173Z,97.4
2024-04-18T02:10:54.789Z,97.7
2024-04-18T02:12:25.351Z,97.6
2024-04-18T02:13:55.893Z,97.4
2024-04-18T02:15:26.412Z,97.4
2024-04-18T02:16:56.936Z,97.3
2024-04-18T02:18:27.446Z,97.3
2024-04-18T02:19:57.974Z,97.3
2024-04-18T02:21:28.536Z,97.7
2024-04-18T02:22:59.036Z,97.7
2024-04-18T02:24:29.725Z,97.8
2024-04-18T02:26:00.214Z,97.5
2024-04-18T02:27:30.786Z,97.3
2024-04-18T02:29:01.445Z,97.6
2024-04-18T02:30:31.897Z,97.3
2024-04-18T02:32:02.657Z,97.4
2024-04-18T02:33:33.292Z,97.6
2024-04-18T02:35:03.914Z,97.2
2024-04-18T02:36:34.410Z,97.5
2024-04-18T02:38:04.870Z,97.2
2024-04-18T02:39:38.725Z,97.2
2024-04-18T02:41:09.307Z,97.7
2024-04-18T02:42:39.850Z,97.6
2024-04-18T02:44:10.540Z,97.4
2024-04-18T02:45:41.008Z,97.3
2024-04-18T02:47:11.635Z,97.3
2024-04-18T02:48:42.203Z,97.6
2024-04-18T02:50:12.641Z,97.2
2024-04-18T02:51:43.122Z,97.5
2024-04-18T02:53:13.682Z,97.4
2024-04-18T02:54:44.419Z,97.4
2024-04-18T02:56:15.249Z,97.3
2024-04-18T02:57:45.968Z,97.3
2024-04-18T02:59:16.596Z,97.4
2024-04-18T03:00:47.354Z,97.2
2024-04-18T03:02:17.944Z,97.5
2024-04-18T03:03:48.721Z,97.6
2024-04-18T03:05:19.332Z,97.4
2024-04-18T03:06:49.868Z,97.4
2024-04-18T03:08:20.340Z,97.2
2024-04-18T03:09:50.824Z,97.6
2024-04-18T03:11:21.463Z,97.8
2024-04-18T03:12:52.025Z,97.5
2024-04-18T03:14:22.568Z,97.5
2024-04-18T03:15:53.129Z,97.2
2024-04-18T03:17:23.768Z,97.8
2024-04-18T03:18:54.555Z,97.4
2024-04-18T03:20:25.148Z,97.4
2024-04-18T03:21:55.959Z,97.3
2024-04-18T03:23:26.609Z,97.3
2024-04-18T03:24:57.162Z,97.5
2024-04-18T03:26:27.744Z,97.7
2024-04-18T03:27:58.159Z,97.3
2024-04-18T03:29:28.582Z,97.3
2024-04-18T03:30:59.105Z,97.5
2024-04-18T03:32:29.612Z,97.5
2024-04-18T03:34:00.240Z,97.4
2024-04-18T03:35:30.661Z,97.5
2024-04-18T03:37:01.091Z,97.7
2024-04-18T03:38:31.539Z,97.2
2024-04-18T03:40:02.038Z,97.5
2024-04-18T03:41:32.567Z,96.9
2024-04-18T03:43:03.116Z,97.2
2024-04-18T03:44:33.754Z,97.3
2024-04-18T03:46:04.279Z,97.4
2024-04-18T03:47:35.090Z,97.1
2024-04-18T03:49:05.976Z,97
2024-04-18T03:50:36.626Z,97.2
2024-04-18T03:52:07.061Z,97.4
2024-04-18T03:53:54.451Z,97.5
2024-04-18T03:55:24.948Z,97.3
2024-04-18T03:56:55.561Z,97.3
2024-04-18T03:58:26.039Z,97
2024-04-18T03:59:56.547Z,97.5
2024-04-18T04:01:27.308Z,96.9
2024-04-18T04:02:57.797Z,97.4
2024-04-18T04:04:28.619Z,97.4
2024-04-18T04:05:59.249Z,97.2
2024-04-18T04:07:29.792Z,97.2
2024-04-18T04:09:00.290Z,97.3
2024-04-18T04:10:30.748Z,97.3
2024-04-18T04:12:01.174Z,97.2
2024-04-18T04:13:31.661Z,97.2
2024-04-18T04:15:02.072Z,97.6
2024-04-18T04:16:32.832Z,97.5
2024-04-18T04:18:03.517Z,97.5
2024-04-18T04:19:34.573Z,97.2
2024-04-18T04:21:05.971Z,97.3
2024-04-18T04:22:37.156Z,97.3
2024-04-18T04:24:07.706Z,97.5
2024-04-18T04:25:38.218Z,97.1
2024-04-18T04:27:08.726Z,97.2
2024-04-18T04:28:39.445Z,97.3
2024-04-18T04:30:09.879Z,97.3
2024-04-18T04:31:40.385Z,97.2
2024-04-18T04:33:10.972Z,97.5
2024-04-18T04:34:41.460Z,97.5
2024-04-18T04:36:11.860Z,97.3
2024-04-18T04:37:42.271Z,97.1
2024-04-18T04:39:12.734Z,97.2
2024-04-18T04:40:43.263Z,97.2
2024-04-18T04:42:13.886Z,97
2024-04-18T04:43:44.503Z,97.2
2024-04-18T04:45:15.134Z,97.3
2024-04-18T04:46:45.710Z,97.3
2024-04-18T04:48:16.401Z,97.3
2024-04-18T04:49:47.369Z,97
2024-04-18T04:51:17.876Z,97.4
2024-04-18T04:52:48.321Z,97.2
2024-04-18T04:54:18.931Z,97.4
2024-04-18T04:55:49.366Z,97.5
2024-04-18T04:57:19.927Z,97.3
2024-04-18T04:58:50.520Z,97.3
2024-04-18T05:00:21.055Z,97.1
2024-04-18T05:01:51.610Z,97.2
2024-04-18T05:03:22.162Z,97
2024-04-18T05:04:52.764Z,97.4
2024-04-18T05:06:23.330Z,97.1
2024-04-18T05:07:56.657Z,97.3
2024-04-18T05:09:27.220Z,96.9
2024-04-18T05:10:57.735Z,97.2
2024-04-18T05:12:28.395Z,97.2
2024-04-18T05:13:58.836Z,97.3
2024-04-18T05:15:29.363Z,97.2
2024-04-18T05:17:00.021Z,97.3
2024-04-18T05:18:30.617Z,97
2024-04-18T05:20:01.129Z,97.1
2024-04-18T05:21:31.594Z,97.1
2024-04-18T05:23:02.107Z,97.3
2024-04-18T05:24:32.650Z,97.3
2024-04-18T05:26:03.106Z,97.1
2024-04-18T05:27:33.606Z,97.1
2024-04-18T05:29:04.147Z,96.9
2024-04-18T05:30:34.636Z,96.9
2024-04-18T05:32:05.240Z,97.1
2024-04-18T05:33:36.158Z,97.1
2024-04-18T05:35:06.878Z,97.5
2024-04-18T05:36:37.438Z,97.2
2024-04-18T05:38:07.899Z,97
2024-04-18T05:39:38.423Z,97
2024-04-18T05:41:08.915Z,96.9
2024-04-18T05:41:25.818Z,97
2024-04-18T05:42:56.365Z,97.1
2024-04-18T05:44:26.901Z,97
2024-04-18T05:45:57.485Z,97.3
2024-04-18T05:47:28.034Z,96.9
2024-04-18T05:48:58.737Z,96.8
2024-04-18T05:50:29.368Z,97.1
2024-04-18T05:51:59.959Z,97
2024-04-18T05:53:30.445Z,97.2
2024-04-18T05:55:00.982Z,97.1
2024-04-18T05:56:31.439Z,97.2
2024-04-18T05:58:01.981Z,97
2024-04-18T05:59:32.436Z,97
2024-04-18T06:01:03.004Z,97.2
2024-04-18T06:02:33.875Z,96.8
2024-04-18T06:04:04.632Z,97
2024-04-18T06:05:35.208Z,97.2
2024-04-18T06:07:05.713Z,96.9
2024-04-18T06:08:36.189Z,96.9
2024-04-18T06:10:06.733Z,97.1
2024-04-18T06:11:37.412Z,97
2024-04-18T06:13:08.069Z,96.7
2024-04-18T06:14:38.530Z,96.6
2024-04-18T06:16:09.081Z,96.7
2024-04-18T06:17:39.571Z,96.9
2024-04-18T06:19:10.065Z,96.3
2024-04-18T06:20:40.530Z,96.4
2024-04-18T06:22:11.002Z,96.2
2024-04-18T06:23:41.418Z,96.2
2024-04-18T06:25:11.848Z,96.7
2024-04-18T06:26:42.259Z,96.2
2024-04-18T06:28:12.728Z,96.2
2024-04-18T06:29:43.201Z,96.6
2024-04-18T06:31:13.685Z,96.6
2024-04-18T06:32:44.220Z,96.4
2024-04-18T06:34:14.723Z,96.3
2024-04-18T06:35:45.357Z,96.5
2024-04-18T06:37:15.810Z,96.2
2024-04-18T06:38:46.247Z,96.5
2024-04-18T06:40:16.699Z,96.3
2024-04-18T06:41:47.177Z,96.4
2024-04-18T06:43:18.160Z,96.1
2024-04-18T06:44:53.853Z,96.2
2024-04-18T06:46:24.270Z,96
2024-04-18T06:47:55.343Z,95.8
2024-04-18T06:49:26.133Z,96.2
2024-04-18T06:50:56.584Z,95.8
2024-04-18T06:52:27.076Z,96.3
2024-04-18T06:53:57.511Z,95.9
2024-04-18T06:55:27.916Z,96.2
2024-04-18T06:56:58.459Z,96.1
2024-04-18T06:58:28.909Z,95.8
2024-04-18T06:59:59.434Z,96
2024-04-18T07:01:30.140Z,95.9
2024-04-18T07:03:01.116Z,95.6
2024-04-18T07:04:31.860Z,95.3
2024-04-18T07:06:02.407Z,95.8
2024-04-18T07:07:32.816Z,95.8
2024-04-18T07:09:03.237Z,96
2024-04-18T07:10:33.653Z,95.9
2024-04-18T07:12:04.227Z,95.8
2024-04-18T07:13:36.084Z,96
2024-04-18T07:15:06.609Z,95.4
2024-04-18T07:16:37.239Z,95.7
2024-04-18T07:18:07.913Z,95.7
2024-04-18T07:19:38.545Z,95.8
2024-04-18T07:21:08.984Z,96.1
2024-04-18T07:22:41.838Z,95.7
2024-04-18T07:24:12.356Z,95.8
2024-04-18T07:25:42.770Z,95.8
2024-04-18T07:27:13.220Z,95.7
2024-04-18T07:28:43.610Z,95.8
2024-04-18T07:30:14.038Z,95.7
2024-04-18T07:30:31.123Z,95.9
2024-04-18T07:32:01.689Z,96
2024-04-18T07:33:32.498Z,95.9
2024-04-18T07:35:03.305Z,96.1
2024-04-18T07:36:33.993Z,96.2
2024-04-18T07:38:04.561Z,95.9
2024-04-18T07:39:35.071Z,95.9
2024-04-18T07:41:05.832Z,96.2
2024-04-18T07:42:36.375Z,96.2
2024-04-18T07:44:06.957Z,96.4
2024-04-18T07:45:39.674Z,95.7
2024-04-18T07:47:10.209Z,95.9
2024-04-18T07:48:40.842Z,95.7
2024-04-18T07:50:11.512Z,95.6
2024-04-18T07:51:42.137Z,95.9
2024-04-18T07:53:12.715Z,96.4
2024-04-18T07:54:43.244Z,96.1
2024-04-18T07:56:14.577Z,95.9
2024-04-18T07:57:47.315Z,96.2
2024-04-18T07:59:20.503Z,95.8
2024-04-18T08:00:54.961Z,95.9
2024-04-18T08:03:29.571Z,96.1
2024-04-18T08:05:08.507Z,95.7
2024-04-18T08:06:47.100Z,95.2
2024-04-18T08:08:27.733Z,95.6
2024-04-18T08:10:11.024Z,95.8
2024-04-18T08:12:27.232Z,95.9
2024-04-18T08:14:07.414Z,95.2
2024-04-18T08:17:23.709Z,95.5
2024-04-18T08:18:54.446Z,95
2024-04-18T08:20:24.929Z,95.1
2024-04-18T08:21:55.363Z,95.6
2024-04-18T08:23:25.904Z,95.6
2024-04-18T08:24:56.393Z,95.6
2024-04-18T08:26:26.807Z,95.8
2024-04-18T08:27:57.236Z,95.8
2024-04-18T08:29:27.667Z,95.4
2024-04-18T08:30:58.067Z,95.3
2024-04-18T08:32:28.506Z,95.8
2024-04-18T08:34:11.828Z,95.7
2024-04-18T08:35:49.500Z,95.9
2024-04-18T08:37:19.959Z,95.6
2024-04-18T08:38:50.499Z,95.4
2024-04-18T08:40:20.976Z,95.7
2024-04-18T08:41:51.524Z,95.6
2024-04-18T08:43:22.031Z,95.4
2024-04-18T08:44:52.546Z,95.3
2024-04-18T08:46:22.985Z,95.1
2024-04-18T08:47:53.706Z,94.9
2024-04-18T08:49:24.562Z,95.9
2024-04-18T08:50:55.249Z,95.8
2024-04-18T08:52:25.803Z,95.8
2024-04-18T08:53:56.292Z,95.2
2024-04-18T08:55:26.868Z,95.6
2024-04-18T08:56:57.354Z,95.6
2024-04-18T08:58:27.860Z,95.6
2024-04-18T08:59:58.386Z,96.2
2024-04-18T09:01:29.015Z,96.1
2024-04-18T09:02:59.490Z,95.7
2024-04-18T09:04:30.309Z,96.3
2024-04-18T09:06:01.051Z,96
2024-04-18T09:07:31.631Z,95.8
2024-04-18T09:09:02.176Z,96.1
2024-04-18T09:10:33.712Z,95.6
2024-04-18T09:12:06.122Z,95.3
2024-04-18T09:13:37.906Z,95.4
2024-04-18T09:15:08.383Z,95.3
2024-04-18T09:16:38.999Z,95.6
2024-04-18T09:18:09.767Z,95.7
2024-04-18T09:19:40.504Z,95.4
2024-04-18T09:21:11.010Z,95.5
2024-04-18T09:22:41.565Z,95.6
2024-04-18T09:24:12.030Z,95.4
2024-04-18T09:25:45.993Z,95.4
2024-04-18T09:27:16.681Z,95.8
2024-04-18T09:28:47.225Z,96
2024-04-18T09:30:17.698Z,96.1
2024-04-18T09:31:48.167Z,96.2
2024-04-18T09:33:18.768Z,96.3
2024-04-18T09:34:49.540Z,95.9
2024-04-18T09:36:20.096Z,96.4
2024-04-18T09:38:04.195Z,96.2
2024-04-18T09:39:40.416Z,96.1
2024-04-18T09:41:10.961Z,96.3
2024-04-18T09:42:41.487Z,96
2024-04-18T09:44:12.038Z,95.8
2024-04-18T09:45:42.697Z,95.7
2024-04-18T09:47:13.153Z,95.9
2024-04-18T09:48:43.921Z,95.8
2024-04-18T09:50:14.734Z,95.5
2024-04-18T09:51:45.178Z,95.8
2024-04-18T09:53:32.751Z,95.6
2024-04-18T09:55:03.345Z,95.7
2024-04-18T09:56:33.803Z,95.7
2024-04-18T09:58:04.240Z,95.1
2024-04-18T09:59:34.781Z,95.6
2024-04-18T10:01:05.186Z,95.2
2024-04-18T10:02:35.785Z,95.2
2024-04-18T10:04:06.424Z,95.1
2024-04-18T10:05:37.356Z,95.3
2024-04-18T10:07:07.766Z,95.4
2024-04-18T10:08:38.259Z,95.1
2024-04-18T10:10:08.952Z,94.9
2024-04-18T10:11:39.690Z,95.1
2024-04-18T10:13:10.182Z,95.4
2024-04-18T10:14:40.691Z,95.1
2024-04-18T10:16:11.106Z,95.6
2024-04-18T10:17:41.602Z,95.2
2024-04-18T10:19:12.416Z,95.5
2024-04-18T10:20:43.198Z,95.4
2024-04-18T10:22:54.914Z,95.2
2024-04-18T10:24:25.483Z,95
2024-04-18T10:25:56.053Z,95.6
2024-04-18T10:27:26.499Z,95.2
2024-04-18T10:28:57.078Z,95.2
2024-04-18T10:30:27.588Z,95.8
2024-04-18T10:31:58.023Z,95.4
2024-04-18T10:33:28.664Z,95.5
2024-04-18T10:34:59.167Z,95.2
2024-04-18T10:36:29.761Z,95.3
2024-04-18T10:38:00.365Z,95.1
2024-04-18T10:39:31.043Z,95.5
2024-04-18T10:41:01.813Z,95.3
2024-04-18T10:42:32.319Z,95.8
2024-04-18T10:44:03.023Z,95.3
2024-04-18T10:45:33.517Z,95.1
2024-04-18T10:47:04.064Z,95
2024-04-18T10:48:34.937Z,95
2024-04-18T10:50:05.825Z,95.1
2024-04-18T10:51:36.417Z,95.4
2024-04-18T10:53:06.970Z,95.5
2024-04-18T10:54:37.457Z,95.4
2024-04-18T10:56:08.182Z,95.2
2024-04-18T10:57:38.980Z,95.3
2024-04-18T10:59:09.681Z,95.4
2024-04-18T11:00:40.197Z,95.8
2024-04-18T11:02:10.902Z,95.6
2024-04-18T11:03:41.544Z,95.4
2024-04-18T11:05:12.495Z,95.4
2024-04-18T11:06:42.968Z,95.8
2024-04-18T11:08:13.525Z,95.5
2024-04-18T11:09:44.111Z,95.4
2024-04-18T11:11:14.994Z,95.7
2024-04-18T11:12:45.610Z,95.2
2024-04-18T11:14:18.240Z,95.2
2024-04-18T11:15:48.864Z,95.3
2024-04-18T11:17:19.434Z,95.3
2024-04-18T11:18:50.207Z,95.4
2024-04-18T11:20:20.890Z,95.4
2024-04-18T11:21:51.314Z,95.8
2024-04-18T11:23:29.152Z,95.2
2024-04-18T11:25:13.573Z,95.3
2024-04-18T11:26:43.984Z,95.2
2024-04-18T11:28:14.412Z,95
2024-04-18T11:29:44.827Z,95.5
2024-04-18T11:31:15.339Z,95.8
2024-04-18T11:32:46.074Z,95.6
2024-04-18T11:34:16.588Z,95.4
2024-04-18T11:35:47.029Z,96
2024-04-18T11:37:17.443Z,95.4
2024-04-18T11:38:47.868Z,95.7
2024-04-18T11:40:18.388Z,95.2
2024-04-18T11:41:49.047Z,95.3
2024-04-18T11:43:19.532Z,95.5
2024-04-18T11:44:49.934Z,95.2
2024-04-18T11:46:20.352Z,95.4
2024-04-18T11:47:50.859Z,95.3
2024-04-18T11:49:21.570Z,95.9
2024-04-18T11:50:52.194Z,95.4
2024-04-18T11:52:22.655Z,95.3
2024-04-18T11:53:53.068Z,95.4
2024-04-18T11:55:23.526Z,95.5
2024-04-18T11:56:54.026Z,95.3
2024-04-18T11:58:24.948Z,95.6
2024-04-18T11:59:55.365Z,95.5
2024-04-18T12:01:25.849Z,95.7
2024-04-18T12:02:56.332Z,95.7
2024-04-18T12:04:27.030Z,95.5
2024-04-18T12:05:57.778Z,95.7
2024-04-18T12:07:28.195Z,95.9
2024-04-18T12:08:58.602Z,96.1
2024-04-18T12:10:29.033Z,96.1
2024-04-18T12:10:45.949Z,96.1
2024-04-18T12:12:16.486Z,95.6
2024-04-18T12:13:46.981Z,96.1
2024-04-18T12:15:17.649Z,96
2024-04-18T12:16:48.141Z,96.1
2024-04-18T12:18:18.712Z,95.7
2024-04-18T12:19:49.281Z,96.4
2024-04-18T12:21:19.885Z,95.9
2024-04-18T12:22:50.320Z,95.9
2024-04-18T12:24:20.747Z,95.8
2024-04-18T12:25:51.398Z,95.5
2024-04-18T12:27:21.951Z,95.6
2024-04-18T12:28:52.550Z,95.7
2024-04-18T12:30:23.091Z,95.4
2024-04-18T12:31:56.115Z,96
2024-04-18T12:33:26.823Z,95.7
2024-04-18T12:35:00.046Z,95.4
2024-04-18T12:36:31.160Z,96.1
2024-04-18T12:38:01.626Z,95.9
2024-04-18T12:39:32.185Z,96
2024-04-18T12:41:06.593Z,96.5
2024-04-18T12:42:37.255Z,96.2
2024-04-18T12:44:07.904Z,96.6
2024-04-18T12:45:40.634Z,96.2
2024-04-18T12:47:11.373Z,96
2024-04-18T12:48:43.018Z,96
2024-04-18T12:50:14.325Z,95.7
2024-04-18T12:51:45.104Z,95.9
2024-04-18T12:53:16.051Z,96
2024-04-18T12:54:46.582Z,96.1
2024-04-18T12:56:17.223Z,96.3
2024-04-18T12:57:47.777Z,96.3
2024-04-18T12:59:18.321Z,96.1
2024-04-18T13:00:49.034Z,95.9
2024-04-18T13:02:19.813Z,95.9
2024-04-18T13:03:54.175Z,96.1
2024-04-18T13:05:26.653Z,96
2024-04-18T13:06:57.088Z,96.1
2024-04-18T13:08:27.613Z,96.5
2024-04-18T13:09:59.400Z,96
2024-04-18T13:11:29.901Z,96
2024-04-18T13:13:00.433Z,96.2
2024-04-18T13:14:38.108Z,96.1
2024-04-18T13:16:33.156Z,95.9
2024-04-18T13:18:03.803Z,95.8
2024-04-18T13:19:34.439Z,96
2024-04-18T13:21:04.914Z,95.8
2024-04-18T13:22:35.382Z,95.8
2024-04-18T13:24:05.870Z,95.6
2024-04-18T13:25:53.532Z,95.6
2024-04-18T13:27:26.616Z,95.5
2024-04-18T13:28:57.548Z,95.5
2024-04-18T13:30:28.198Z,95.3
2024-04-18T13:31:58.795Z,95.5
2024-04-18T13:33:29.429Z,95.5
2024-04-18T13:35:00.051Z,95.3
2024-04-18T13:36:30.519Z,95.6
2024-04-18T13:38:01.000Z,95.5
2024-04-18T13:39:31.585Z,95.5
2024-04-18T13:41:05.153Z,96
2024-04-18T13:42:52.749Z,95.8
2024-04-18T13:44:23.185Z,95.6
2024-04-18T13:45:55.295Z,96.1
2024-04-18T13:47:29.905Z,95.5
2024-04-18T13:49:00.536Z,95.9
2024-04-18T13:50:31.080Z,95.5
2024-04-18T13:52:01.490Z,95.5
2024-04-18T13:53:31.916Z,95.8
2024-04-18T13:55:02.378Z,95.8
2024-04-18T13:56:40.282Z,95.5
2024-04-18T13:58:10.756Z,95.3
2024-04-18T13:59:41.189Z,96
2024-04-18T13:59:58.179Z,95.8
2024-04-18T14:03:23.698Z,95.8
2024-04-18T14:04:54.529Z,95.9
2024-04-18T14:06:25.108Z,95.8
2024-04-18T14:07:55.707Z,95.8
2024-04-18T14:09:26.253Z,95.5
2024-04-18T14:10:56.787Z,95.8
2024-04-18T14:12:27.422Z,96.1
2024-04-18T14:13:57.903Z,96.1
2024-04-18T14:15:28.506Z,96.5
2024-04-18T14:16:59.348Z,95.7
2024-04-18T14:18:29.998Z,96.2
2024-04-18T14:20:01.125Z,96.3
2024-04-18T14:21:31.724Z,96.2
2024-04-18T14:23:02.361Z,95.9
2024-04-18T14:24:32.905Z,95.6
2024-04-18T14:26:03.371Z,95.6
2024-04-18T14:27:33.848Z,95.7
2024-04-18T14:29:04.645Z,95.2
2024-04-18T14:30:35.217Z,95.3
2024-04-18T14:32:05.773Z,95.1
2024-04-18T14:33:36.414Z,95.4
2024-04-18T14:35:07.597Z,95.9
2024-04-18T14:36:38.301Z,95.9
2024-04-18T14:38:09.010Z,95.6
2024-04-18T14:39:39.686Z,95.3
2024-04-18T14:41:13.658Z,95.4
2024-04-18T14:42:44.248Z,95.2
2024-04-18T14:44:14.788Z,95.5
2024-04-18T14:45:45.269Z,95.5
2024-04-18T14:47:15.730Z,95.6
2024-04-18T14:48:46.319Z,95.9
2024-04-18T14:50:16.966Z,95.5
2024-04-18T14:51:47.446Z,95.6
2024-04-18T14:53:17.902Z,96.3
2024-04-18T14:54:48.335Z,95.9
2024-04-18T14:56:18.895Z,95.4
2024-04-18T14:57:49.389Z,96.1
2024-04-18T14:59:19.900Z,96.1
2024-04-18T15:00:50.600Z,95.7
2024-04-18T15:02:21.999Z,96.1
2024-04-18T15:03:52.589Z,96.1
2024-04-18T15:05:23.126Z,96.1
2024-04-18T15:06:53.640Z,96.3
2024-04-18T15:08:24.213Z,95.8
2024-04-18T15:09:54.782Z,96.1
2024-04-18T15:11:25.372Z,96.3
2024-04-18T15:12:56.444Z,95.9
2024-04-18T15:14:26.878Z,96.1
2024-04-18T15:15:58.128Z,95.8
2024-04-18T15:17:31.911Z,96.4
2024-04-18T15:19:02.656Z,96.2
2024-04-18T15:20:33.488Z,95.8
2024-04-18T15:22:04.225Z,96.1
2024-04-18T15:23:38.196Z,95.9
2024-04-18T15:25:08.630Z,96
2024-04-18T15:26:39.173Z,96
2024-04-18T15:28:09.658Z,95.8
2024-04-18T15:29:40.213Z,96.1
2024-04-18T15:31:10.716Z,96
2024-04-18T15:32:41.253Z,95.9
2024-04-18T15:34:11.864Z,96.2
2024-04-18T15:35:42.317Z,96
2024-04-18T15:37:12.787Z,95.9
2024-04-18T15:38:43.205Z,95.8
2024-04-18T15:40:17.913Z,96
2024-04-18T15:41:48.752Z,95.9
2024-04-18T15:43:19.179Z,95.9
2024-04-18T15:44:49.620Z,95.8
2024-04-18T15:46:20.168Z,95.9
2024-04-18T15:47:50.843Z,96
2024-04-18T15:49:21.757Z,95.9
2024-04-18T15:50:52.205Z,95.7
2024-04-18T15:52:22.734Z,95.8
2024-04-18T15:54:10.194Z,95.7
2024-04-18T15:55:40.671Z,95.8
2024-04-18T15:57:11.151Z,95.9
2024-04-18T15:58:41.736Z,95.9
2024-04-18T16:00:12.436Z,95.6
2024-04-18T16:01:43.132Z,95.6
2024-04-18T16:03:13.641Z,95.6
2024-04-18T16:04:44.373Z,96.2
2024-04-18T16:06:15.001Z,96.2
2024-04-18T16:07:45.503Z,96.8
2024-04-18T16:09:16.154Z,96.1
2024-04-18T16:10:46.608Z,95.9
2024-04-18T16:12:17.080Z,96.2
2024-04-18T16:13:47.695Z,96
2024-04-18T16:15:18.280Z,96.2
2024-04-18T16:16:53.415Z,95.8
2024-04-18T16:18:28.623Z,96.7
2024-04-18T16:20:06.287Z,96.8
2024-04-18T16:21:36.705Z,96.2
2024-04-18T16:23:07.424Z,96.7
2024-04-18T16:24:38.112Z,96.5
2024-04-18T16:26:08.748Z,96.2
2024-04-18T16:27:39.512Z,96.5
2024-04-18T16:29:10.089Z,96.1
2024-04-18T16:30:43.016Z,96.2
2024-04-18T16:32:16.799Z,96.1
2024-04-18T16:33:50.465Z,96.5
2024-04-18T16:35:21.149Z,96.1
2024-04-18T16:37:14.137Z,96.5
2024-04-18T16:38:49.831Z,96.5
2024-04-18T16:40:20.334Z,96.2
2024-04-18T16:41:50.831Z,96.5
2024-04-18T16:43:21.246Z,96.7
2024-04-18T16:44:51.699Z,96.4
2024-04-18T16:46:26.851Z,96.3
2024-04-18T16:48:07.170Z,96.6
2024-04-18T16:50:02.371Z,96.6
2024-04-18T16:51:32.856Z,96.4
2024-04-18T16:53:03.503Z,96.6
2024-04-18T16:54:33.954Z,96
2024-04-18T16:56:04.444Z,96.8
2024-04-18T16:57:38.138Z,96.7
2024-04-18T16:59:08.698Z,96.3
2024-04-18T17:00:39.440Z,96.2
2024-04-18T17:02:19.909Z,96.7
2024-04-18T17:03:50.882Z,96.5
2024-04-18T17:05:25.405Z,96.6
2024-04-18T17:06:56.208Z,96
2024-04-18T17:08:26.766Z,96.7
2024-04-18T17:09:57.292Z,96.6
2024-04-18T17:11:27.821Z,96.1
2024-04-18T17:13:02.897Z,96.7
2024-04-18T17:14:33.496Z,96.6
2024-04-18T17:16:13.457Z,96.3
2024-04-18T17:17:49.471Z,96.4
2024-04-18T17:19:20.403Z,96.6
2024-04-18T17:21:02.915Z,96.5
2024-04-18T17:22:33.659Z,96.6
2024-04-18T17:24:06.419Z,96.4
2024-04-18T17:25:47.011Z,96.9
2024-04-18T17:27:17.543Z,96.6
2024-04-18T17:28:48.028Z,96.6
2024-04-18T17:30:18.607Z,96.3
2024-04-18T17:31:49.251Z,96.6
2024-04-18T17:33:19.810Z,96.4
2024-04-18T17:34:50.394Z,96.5
2024-04-18T17:36:20.869Z,96.7
2024-04-18T17:37:51.443Z,96.9
2024-04-18T17:39:21.977Z,96.8
2024-04-18T17:40:52.509Z,96.5
2024-04-18T17:44:12.783Z,96.7
2024-04-18T17:45:43.268Z,96.9
2024-04-18T17:47:13.787Z,97
2024-04-18T17:48:44.774Z,96.6
2024-04-18T17:50:15.594Z,96.3
2024-04-18T17:51:46.272Z,96.8
2024-04-18T17:53:16.847Z,96.7
2024-04-18T17:54:47.489Z,97.1
2024-04-18T17:56:18.126Z,96.4
2024-04-18T17:57:48.646Z,96.7
2024-04-18T17:59:19.137Z,96.5
2024-04-18T18:00:49.986Z,96.7
2024-04-18T18:02:20.522Z,96.8
2024-04-18T18:03:51.196Z,96.6
2024-04-18T18:05:21.744Z,96.5
2024-04-18T18:06:52.273Z,96.6
2024-04-18T18:08:22.687Z,96.8
2024-04-18T18:09:53.101Z,96.9
2024-04-18T18:11:23.640Z,96.9
2024-04-18T18:12:54.243Z,97.1
2024-04-18T18:14:24.724Z,96.9
2024-04-18T18:15:55.187Z,96.9
2024-04-18T18:17:25.810Z,96.6
2024-04-18T18:18:56.712Z,97
2024-04-18T18:20:27.383Z,96.6
2024-04-18T18:21:58.042Z,96.8
2024-04-18T18:23:28.624Z,96.7
2024-04-18T18:24:59.059Z,96.8
2024-04-18T18:26:29.599Z,96.5
2024-04-18T18:28:00.088Z,96.9
2024-04-18T18:29:30.650Z,96.9
2024-04-18T18:31:01.228Z,96.7
2024-04-18T18:32:31.891Z,96.9
2024-04-18T18:34:02.628Z,96.6
2024-04-18T18:35:33.249Z,97.1
2024-04-18T18:37:03.802Z,97.2
2024-04-18T18:38:34.290Z,96.9
2024-04-18T18:40:04.806Z,97.1
2024-04-18T18:41:35.302Z,97.4
2024-04-18T18:43:06.069Z,97
2024-04-18T18:44:37.476Z,96.7
2024-04-18T18:46:07.886Z,97.1
2024-04-18T18:47:38.396Z,96.8
2024-04-18T18:49:09.192Z,97.1
2024-04-18T18:50:39.774Z,96.9
2024-04-18T18:52:10.222Z,96.7
2024-04-18T18:53:40.742Z,97
2024-04-18T18:55:11.250Z,96.9
2024-04-18T18:56:41.677Z,96.6
2024-04-18T18:58:12.213Z,96.4
2024-04-18T18:59:42.743Z,97.3
2024-04-18T19:01:13.412Z,96.9
2024-04-18T19:02:44.022Z,97
2024-04-18T19:04:14.873Z,97.2
2024-04-18T19:05:45.629Z,96.8
2024-04-18T19:07:16.181Z,96.8
2024-04-18T19:08:46.666Z,96.8
2024-04-18T19:10:17.155Z,97.2
2024-04-18T19:11:47.632Z,96.8
2024-04-18T19:13:18.174Z,97.2
2024-04-18T19:14:48.650Z,96.7
2024-04-18T19:16:19.222Z,96.8
2024-04-18T19:17:49.751Z,97
2024-04-18T19:19:20.326Z,96.9
2024-04-18T19:20:50.766Z,96.9
2024-04-18T19:22:21.282Z,97.1
2024-04-18T19:23:51.790Z,96.8
2024-04-18T19:25:22.209Z,96.4
2024-04-18T19:26:52.657Z,96.7
2024-04-18T19:28:23.171Z,97
2024-04-18T19:29:53.581Z,96.9
2024-04-18T19:31:40.914Z,97.1
2024-04-18T19:33:11.605Z,96.8
2024-04-18T19:34:42.393Z,96.2
2024-04-18T19:36:12.920Z,97.1
2024-04-18T19:37:43.382Z,97
2024-04-18T19:39:13.853Z,97.3
2024-04-18T19:40:44.426Z,97.1
2024-04-18T19:42:14.896Z,96.9
2024-04-18T19:43:45.370Z,97.1
2024-04-18T19:45:15.846Z,96.6
2024-04-18T19:46:46.515Z,97.1
2024-04-18T19:48:17.295Z,97.1
2024-04-18T19:49:48.025Z,96.7
2024-04-18T19:51:18.596Z,96.8
2024-04-18T19:52:49.126Z,96.7
2024-04-18T19:54:19.574Z,96.9
2024-04-18T19:55:50.205Z,97.1
2024-04-18T19:57:20.759Z,97.1
2024-04-18T19:58:51.212Z,97.3
2024-04-18T20:00:21.802Z,97
2024-04-18T20:01:52.254Z,97.3
2024-04-18T20:03:22.859Z,96.6
2024-04-18T20:04:53.543Z,96.9
2024-04-18T20:06:24.286Z,97.4
2024-04-18T20:07:54.859Z,96.7
2024-04-18T20:09:25.364Z,96.9
2024-04-18T20:10:55.944Z,97
2024-04-18T20:12:26.481Z,96.7
2024-04-18T20:13:56.977Z,96.9
2024-04-18T20:15:27.558Z,96.9
2024-04-18T20:16:58.103Z,97.3
2024-04-18T20:18:28.843Z,97.3
2024-04-18T20:19:59.626Z,97
2024-04-18T20:21:30.259Z,97.1
2024-04-18T20:23:00.762Z,97.2
2024-04-18T20:24:31.288Z,96.6
2024-04-18T20:26:01.867Z,97
2024-04-18T20:27:32.464Z,97
2024-04-18T20:29:03.035Z,96.8
2024-04-18T20:30:33.601Z,96.8
2024-04-18T20:32:04.214Z,97.5
2024-04-18T20:33:34.835Z,97.1
2024-04-18T20:35:05.429Z,97.1